logo
Search for airport 
image banner adimage banner adimage banner ad
image banner ad

SNQF - Fazenda Paraiso

Located in Inocencia, Brazil

ICAO - SNQF, IATA -

Data provided by Airmate  

General information

Coordinates: S19°55'24" W52°9'39"
Elevation is 1414 feet MSL.
Magnetic variation is -19.718023593° East
View others Airports in Ceará

Operational data

Special qualification required
Current time UTC:
Current local time:
Weather at : - ( 0 km )
METAR: UUOK 171905Z AUTO 22005MPS 9999 // ///010/// 19/18 Q1009 RMK QFE739/0985
View NOTAMs / SUP AIP / TFR affecting this airport [VIEW]
Communications frequencies: [VIEW]

Runways:

RWY identifierQFULength (ft)Width (ft)SurfaceLDA (ft)
09311759EARTH
27311759EARTH

Airport contact information

Address: Inocencia Brazil

Satellite view of SNQF